sensor_id;sensor_type;location;lat;lon;timestamp;P1;durP1;ratioP1;P2;durP2;ratioP2
57297;SDS011;43147;50.972;18.210;2023-01-28T00:01:11;58.00;;;21.20;;
57297;SDS011;43147;50.972;18.210;2023-01-28T00:03:38;55.80;;;20.40;;
57297;SDS011;43147;50.972;18.210;2023-01-28T00:06:06;68.40;;;25.80;;
57297;SDS011;43147;50.972;18.210;2023-01-28T00:08:33;76.70;;;26.60;;
57297;SDS011;43147;50.972;18.210;2023-01-28T00:10:59;75.50;;;23.90;;
57297;SDS011;43147;50.972;18.210;2023-01-28T00:13:26;76.50;;;26.10;;
57297;SDS011;43147;50.972;18.210;2023-01-28T00:15:56;68.90;;;23.50;;
57297;SDS011;43147;50.972;18.210;2023-01-28T00:18:26;56.00;;;18.30;;
57297;SDS011;43147;50.972;18.210;2023-01-28T00:20:58;79.70;;;26.90;;
57297;SDS011;43147;50.972;18.210;2023-01-28T00:23:49;65.20;;;26.50;;
57297;SDS011;43147;50.972;18.210;2023-01-28T00:26:16;50.80;;;19.40;;
57297;SDS011;43147;50.972;18.210;2023-01-28T00:28:42;55.50;;;20.70;;
57297;SDS011;43147;50.972;18.210;2023-01-28T00:31:09;58.10;;;22.10;;
57297;SDS011;43147;50.972;18.210;2023-01-28T00:33:37;65.90;;;23.30;;
57297;SDS011;43147;50.972;18.210;2023-01-28T00:36:04;64.30;;;21.60;;
57297;SDS011;43147;50.972;18.210;2023-01-28T00:38:33;72.70;;;26.70;;
57297;SDS011;43147;50.972;18.210;2023-01-28T00:41:09;74.70;;;26.20;;
57297;SDS011;43147;50.972;18.210;2023-01-28T00:43:36;97.50;;;30.60;;
57297;SDS011;43147;50.972;18.210;2023-01-28T00:46:08;61.60;;;21.00;;
57297;SDS011;43147;50.972;18.210;2023-01-28T00:48:34;54.20;;;20.60;;
57297;SDS011;43147;50.972;18.210;2023-01-28T00:51:01;76.50;;;27.20;;
57297;SDS011;43147;50.972;18.210;2023-01-28T00:53:28;83.00;;;30.90;;
57297;SDS011;43147;50.972;18.210;2023-01-28T00:55:53;87.50;;;29.80;;
57297;SDS011;43147;50.972;18.210;2023-01-28T00:58:19;70.30;;;23.10;;
57297;SDS011;43147;50.972;18.210;2023-01-28T01:00:45;69.70;;;21.80;;
57297;SDS011;43147;50.972;18.210;2023-01-28T01:03:11;93.70;;;28.30;;
57297;SDS011;43147;50.972;18.210;2023-01-28T01:05:37;79.80;;;27.40;;
57297;SDS011;43147;50.972;18.210;2023-01-28T01:08:03;95.30;;;31.40;;
57297;SDS011;43147;50.972;18.210;2023-01-28T01:10:29;63.80;;;25.50;;
57297;SDS011;43147;50.972;18.210;2023-01-28T01:12:54;78.00;;;26.60;;
57297;SDS011;43147;50.972;18.210;2023-01-28T01:15:22;80.70;;;27.50;;
57297;SDS011;43147;50.972;18.210;2023-01-28T01:17:48;63.70;;;24.20;;
57297;SDS011;43147;50.972;18.210;2023-01-28T01:20:15;82.70;;;27.40;;
57297;SDS011;43147;50.972;18.210;2023-01-28T01:22:42;45.30;;;18.10;;
57297;SDS011;43147;50.972;18.210;2023-01-28T01:25:09;63.30;;;24.80;;
57297;SDS011;43147;50.972;18.210;2023-01-28T01:27:35;59.30;;;20.30;;
57297;SDS011;43147;50.972;18.210;2023-01-28T01:30:00;75.30;;;25.30;;
57297;SDS011;43147;50.972;18.210;2023-01-28T01:32:29;72.70;;;24.30;;
57297;SDS011;43147;50.972;18.210;2023-01-28T01:34:59;83.50;;;28.40;;
57297;SDS011;43147;50.972;18.210;2023-01-28T01:37:25;77.50;;;28.50;;
57297;SDS011;43147;50.972;18.210;2023-01-28T01:39:51;76.60;;;26.50;;
57297;SDS011;43147;50.972;18.210;2023-01-28T01:42:17;83.90;;;28.50;;
57297;SDS011;43147;50.972;18.210;2023-01-28T01:44:51;61.40;;;23.20;;
57297;SDS011;43147;50.972;18.210;2023-01-28T01:47:44;72.90;;;25.90;;
57297;SDS011;43147;50.972;18.210;2023-01-28T01:52:56;68.10;;;22.90;;
57297;SDS011;43147;50.972;18.210;2023-01-28T01:55:25;88.50;;;29.70;;
57297;SDS011;43147;50.972;18.210;2023-01-28T01:57:53;66.30;;;23.40;;
57297;SDS011;43147;50.972;18.210;2023-01-28T02:00:20;79.40;;;26.70;;
57297;SDS011;43147;50.972;18.210;2023-01-28T02:02:47;81.20;;;27.00;;
57297;SDS011;43147;50.972;18.210;2023-01-28T02:05:15;67.30;;;22.90;;
57297;SDS011;43147;50.972;18.210;2023-01-28T02:07:43;76.70;;;26.50;;
57297;SDS011;43147;50.972;18.210;2023-01-28T02:10:09;75.30;;;25.90;;
57297;SDS011;43147;50.972;18.210;2023-01-28T02:12:36;79.70;;;26.70;;
57297;SDS011;43147;50.972;18.210;2023-01-28T02:15:06;64.50;;;22.70;;
57297;SDS011;43147;50.972;18.210;2023-01-28T02:17:34;62.20;;;22.00;;
57297;SDS011;43147;50.972;18.210;2023-01-28T02:20:02;69.30;;;24.00;;
57297;SDS011;43147;50.972;18.210;2023-01-28T02:28:12;57.10;;;20.80;;
57297;SDS011;43147;50.972;18.210;2023-01-28T02:31:06;71.40;;;26.20;;
57297;SDS011;43147;50.972;18.210;2023-01-28T02:36:13;73.70;;;29.30;;
57297;SDS011;43147;50.972;18.210;2023-01-28T02:38:46;81.60;;;27.60;;
57297;SDS011;43147;50.972;18.210;2023-01-28T02:41:22;89.50;;;28.80;;
57297;SDS011;43147;50.972;18.210;2023-01-28T02:43:53;79.90;;;29.00;;
57297;SDS011;43147;50.972;18.210;2023-01-28T02:46:20;81.90;;;27.80;;
57297;SDS011;43147;50.972;18.210;2023-01-28T02:49:11;54.20;;;21.90;;
57297;SDS011;43147;50.972;18.210;2023-01-28T02:54:34;51.80;;;18.80;;
57297;SDS011;43147;50.972;18.210;2023-01-28T02:59:46;55.50;;;20.00;;
57297;SDS011;43147;50.972;18.210;2023-01-28T03:07:35;65.80;;;24.70;;
57297;SDS011;43147;50.972;18.210;2023-01-28T03:10:03;62.60;;;20.70;;
57297;SDS011;43147;50.972;18.210;2023-01-28T03:12:31;37.10;;;18.10;;
57297;SDS011;43147;50.972;18.210;2023-01-28T03:15:17;58.20;;;19.80;;
57297;SDS011;43147;50.972;18.210;2023-01-28T03:18:10;50.80;;;20.60;;
57297;SDS011;43147;50.972;18.210;2023-01-28T03:21:11;52.20;;;15.80;;
57297;SDS011;43147;50.972;18.210;2023-01-28T03:30:10;52.70;;;21.10;;
57297;SDS011;43147;50.972;18.210;2023-01-28T03:33:16;46.20;;;17.80;;
57297;SDS011;43147;50.972;18.210;2023-01-28T03:36:01;55.30;;;21.90;;
57297;SDS011;43147;50.972;18.210;2023-01-28T03:38:45;80.20;;;23.70;;
57297;SDS011;43147;50.972;18.210;2023-01-28T03:41:19;58.80;;;21.30;;
57297;SDS011;43147;50.972;18.210;2023-01-28T03:43:46;64.60;;;24.10;;
57297;SDS011;43147;50.972;18.210;2023-01-28T03:46:12;48.90;;;20.30;;
57297;SDS011;43147;50.972;18.210;2023-01-28T03:48:38;75.20;;;25.80;;
57297;SDS011;43147;50.972;18.210;2023-01-28T03:51:04;80.00;;;28.40;;
57297;SDS011;43147;50.972;18.210;2023-01-28T03:53:30;64.30;;;21.80;;
57297;SDS011;43147;50.972;18.210;2023-01-28T03:55:55;73.10;;;23.80;;
57297;SDS011;43147;50.972;18.210;2023-01-28T03:58:21;52.30;;;22.20;;
57297;SDS011;43147;50.972;18.210;2023-01-28T04:00:54;69.40;;;23.50;;
57297;SDS011;43147;50.972;18.210;2023-01-28T04:03:20;58.60;;;22.50;;
57297;SDS011;43147;50.972;18.210;2023-01-28T04:05:56;59.80;;;23.90;;
57297;SDS011;43147;50.972;18.210;2023-01-28T04:08:22;74.90;;;26.40;;
57297;SDS011;43147;50.972;18.210;2023-01-28T04:10:48;51.80;;;20.70;;
57297;SDS011;43147;50.972;18.210;2023-01-28T04:13:14;59.70;;;24.30;;
57297;SDS011;43147;50.972;18.210;2023-01-28T04:15:41;53.30;;;20.10;;
57297;SDS011;43147;50.972;18.210;2023-01-28T04:18:07;45.80;;;18.10;;
57297;SDS011;43147;50.972;18.210;2023-01-28T04:20:34;63.70;;;23.70;;
57297;SDS011;43147;50.972;18.210;2023-01-28T04:23:00;45.80;;;18.80;;
57297;SDS011;43147;50.972;18.210;2023-01-28T04:25:26;42.10;;;19.80;;
57297;SDS011;43147;50.972;18.210;2023-01-28T04:27:52;51.00;;;20.00;;
57297;SDS011;43147;50.972;18.210;2023-01-28T04:30:17;58.50;;;23.30;;
57297;SDS011;43147;50.972;18.210;2023-01-28T04:32:45;64.00;;;24.80;;
57297;SDS011;43147;50.972;18.210;2023-01-28T04:35:11;68.20;;;21.60;;
57297;SDS011;43147;50.972;18.210;2023-01-28T04:37:37;50.70;;;18.40;;
57297;SDS011;43147;50.972;18.210;2023-01-28T04:40:05;67.70;;;24.20;;
57297;SDS011;43147;50.972;18.210;2023-01-28T04:42:32;59.40;;;22.30;;
57297;SDS011;43147;50.972;18.210;2023-01-28T04:44:57;41.70;;;17.20;;
57297;SDS011;43147;50.972;18.210;2023-01-28T04:47:23;59.10;;;22.30;;
57297;SDS011;43147;50.972;18.210;2023-01-28T04:49:49;45.90;;;19.00;;
57297;SDS011;43147;50.972;18.210;2023-01-28T04:52:15;42.00;;;19.70;;
57297;SDS011;43147;50.972;18.210;2023-01-28T04:54:41;49.20;;;19.70;;
57297;SDS011;43147;50.972;18.210;2023-01-28T04:57:06;45.00;;;16.70;;
57297;SDS011;43147;50.972;18.210;2023-01-28T04:59:32;44.10;;;16.50;;
57297;SDS011;43147;50.972;18.210;2023-01-28T05:01:57;48.50;;;19.90;;
57297;SDS011;43147;50.972;18.210;2023-01-28T05:04:23;58.50;;;22.10;;
57297;SDS011;43147;50.972;18.210;2023-01-28T05:06:49;27.10;;;13.90;;
57297;SDS011;43147;50.972;18.210;2023-01-28T05:09:14;48.90;;;19.60;;
57297;SDS011;43147;50.972;18.210;2023-01-28T05:11:40;53.10;;;20.30;;
57297;SDS011;43147;50.972;18.210;2023-01-28T05:14:06;37.90;;;15.50;;
57297;SDS011;43147;50.972;18.210;2023-01-28T05:16:32;34.30;;;14.70;;
57297;SDS011;43147;50.972;18.210;2023-01-28T05:18:59;51.60;;;20.90;;
57297;SDS011;43147;50.972;18.210;2023-01-28T05:21:26;53.70;;;19.30;;
57297;SDS011;43147;50.972;18.210;2023-01-28T05:23:52;51.80;;;21.40;;
57297;SDS011;43147;50.972;18.210;2023-01-28T05:26:17;37.60;;;15.00;;
57297;SDS011;43147;50.972;18.210;2023-01-28T05:28:43;53.80;;;20.40;;
57297;SDS011;43147;50.972;18.210;2023-01-28T05:31:08;39.30;;;16.20;;
57297;SDS011;43147;50.972;18.210;2023-01-28T05:33:35;45.00;;;17.30;;
57297;SDS011;43147;50.972;18.210;2023-01-28T05:36:01;44.10;;;16.40;;
57297;SDS011;43147;50.972;18.210;2023-01-28T05:38:26;34.50;;;14.30;;
57297;SDS011;43147;50.972;18.210;2023-01-28T05:40:52;50.80;;;19.50;;
57297;SDS011;43147;50.972;18.210;2023-01-28T05:43:17;43.90;;;18.40;;
57297;SDS011;43147;50.972;18.210;2023-01-28T05:45:43;50.10;;;19.70;;
57297;SDS011;43147;50.972;18.210;2023-01-28T05:48:08;54.60;;;20.80;;
57297;SDS011;43147;50.972;18.210;2023-01-28T05:50:34;51.30;;;19.90;;
57297;SDS011;43147;50.972;18.210;2023-01-28T05:53:00;39.10;;;16.30;;
57297;SDS011;43147;50.972;18.210;2023-01-28T05:55:25;48.10;;;19.30;;
57297;SDS011;43147;50.972;18.210;2023-01-28T05:57:51;44.50;;;16.70;;
57297;SDS011;43147;50.972;18.210;2023-01-28T06:00:17;41.80;;;16.40;;
57297;SDS011;43147;50.972;18.210;2023-01-28T06:02:43;41.80;;;14.80;;
57297;SDS011;43147;50.972;18.210;2023-01-28T06:05:08;40.90;;;15.90;;
57297;SDS011;43147;50.972;18.210;2023-01-28T06:07:34;53.40;;;19.10;;
57297;SDS011;43147;50.972;18.210;2023-01-28T06:10:00;54.20;;;20.60;;
57297;SDS011;43147;50.972;18.210;2023-01-28T06:12:25;50.20;;;20.40;;
57297;SDS011;43147;50.972;18.210;2023-01-28T06:14:53;46.20;;;19.70;;
57297;SDS011;43147;50.972;18.210;2023-01-28T06:17:19;37.20;;;16.80;;
57297;SDS011;43147;50.972;18.210;2023-01-28T06:19:44;51.80;;;19.30;;
57297;SDS011;43147;50.972;18.210;2023-01-28T06:22:10;45.40;;;17.70;;
57297;SDS011;43147;50.972;18.210;2023-01-28T06:24:35;42.20;;;17.00;;
57297;SDS011;43147;50.972;18.210;2023-01-28T06:27:01;46.30;;;20.20;;
57297;SDS011;43147;50.972;18.210;2023-01-28T06:29:26;46.10;;;18.50;;
57297;SDS011;43147;50.972;18.210;2023-01-28T06:31:52;50.00;;;18.20;;
57297;SDS011;43147;50.972;18.210;2023-01-28T06:34:18;34.50;;;14.80;;
57297;SDS011;43147;50.972;18.210;2023-01-28T06:36:43;38.60;;;19.00;;
57297;SDS011;43147;50.972;18.210;2023-01-28T06:39:09;41.60;;;17.10;;
57297;SDS011;43147;50.972;18.210;2023-01-28T06:41:35;42.70;;;17.10;;
57297;SDS011;43147;50.972;18.210;2023-01-28T06:44:01;50.70;;;20.30;;
57297;SDS011;43147;50.972;18.210;2023-01-28T06:46:26;52.20;;;21.10;;
57297;SDS011;43147;50.972;18.210;2023-01-28T06:48:52;58.00;;;22.00;;
57297;SDS011;43147;50.972;18.210;2023-01-28T06:51:18;51.40;;;20.20;;
57297;SDS011;43147;50.972;18.210;2023-01-28T06:53:43;58.60;;;20.60;;
57297;SDS011;43147;50.972;18.210;2023-01-28T06:56:09;54.20;;;21.10;;
57297;SDS011;43147;50.972;18.210;2023-01-28T06:58:35;48.20;;;17.70;;
57297;SDS011;43147;50.972;18.210;2023-01-28T07:01:00;45.50;;;18.90;;
57297;SDS011;43147;50.972;18.210;2023-01-28T07:03:26;51.70;;;20.00;;
57297;SDS011;43147;50.972;18.210;2023-01-28T07:05:51;50.50;;;20.10;;
57297;SDS011;43147;50.972;18.210;2023-01-28T07:08:17;44.50;;;17.90;;
57297;SDS011;43147;50.972;18.210;2023-01-28T07:10:43;49.30;;;19.10;;
57297;SDS011;43147;50.972;18.210;2023-01-28T07:13:09;41.10;;;15.90;;
57297;SDS011;43147;50.972;18.210;2023-01-28T07:15:35;43.90;;;17.50;;
57297;SDS011;43147;50.972;18.210;2023-01-28T07:18:01;32.80;;;13.50;;
57297;SDS011;43147;50.972;18.210;2023-01-28T07:20:26;32.20;;;13.30;;
57297;SDS011;43147;50.972;18.210;2023-01-28T07:22:52;43.90;;;16.70;;
57297;SDS011;43147;50.972;18.210;2023-01-28T07:25:17;32.50;;;12.80;;
57297;SDS011;43147;50.972;18.210;2023-01-28T07:27:47;31.10;;;13.60;;
57297;SDS011;43147;50.972;18.210;2023-01-28T07:30:17;38.30;;;17.10;;
57297;SDS011;43147;50.972;18.210;2023-01-28T07:32:44;37.20;;;15.70;;
57297;SDS011;43147;50.972;18.210;2023-01-28T07:35:10;45.70;;;13.20;;
57297;SDS011;43147;50.972;18.210;2023-01-28T07:37:36;36.70;;;17.30;;
57297;SDS011;43147;50.972;18.210;2023-01-28T07:40:01;29.70;;;15.10;;
57297;SDS011;43147;50.972;18.210;2023-01-28T07:42:28;39.00;;;16.20;;
57297;SDS011;43147;50.972;18.210;2023-01-28T07:44:53;41.30;;;16.70;;
57297;SDS011;43147;50.972;18.210;2023-01-28T07:47:19;28.40;;;13.80;;
57297;SDS011;43147;50.972;18.210;2023-01-28T07:49:47;27.70;;;12.30;;
57297;SDS011;43147;50.972;18.210;2023-01-28T07:52:13;29.90;;;13.80;;
57297;SDS011;43147;50.972;18.210;2023-01-28T07:54:39;22.50;;;12.30;;
57297;SDS011;43147;50.972;18.210;2023-01-28T07:57:08;29.60;;;13.00;;
57297;SDS011;43147;50.972;18.210;2023-01-28T07:59:36;26.10;;;10.80;;
57297;SDS011;43147;50.972;18.210;2023-01-28T08:02:02;39.90;;;16.60;;
57297;SDS011;43147;50.972;18.210;2023-01-28T08:04:28;20.00;;;10.10;;
57297;SDS011;43147;50.972;18.210;2023-01-28T08:06:53;30.80;;;11.50;;
57297;SDS011;43147;50.972;18.210;2023-01-28T08:09:19;21.20;;;11.30;;
57297;SDS011;43147;50.972;18.210;2023-01-28T08:11:44;28.80;;;12.70;;
57297;SDS011;43147;50.972;18.210;2023-01-28T08:14:10;20.20;;;10.80;;
57297;SDS011;43147;50.972;18.210;2023-01-28T08:16:36;31.10;;;12.60;;
57297;SDS011;43147;50.972;18.210;2023-01-28T08:19:02;26.70;;;12.20;;
57297;SDS011;43147;50.972;18.210;2023-01-28T08:21:27;24.90;;;11.10;;
57297;SDS011;43147;50.972;18.210;2023-01-28T08:23:53;34.80;;;14.40;;
57297;SDS011;43147;50.972;18.210;2023-01-28T08:26:20;27.90;;;12.80;;
57297;SDS011;43147;50.972;18.210;2023-01-28T08:28:45;28.40;;;13.80;;
57297;SDS011;43147;50.972;18.210;2023-01-28T08:31:13;22.90;;;12.20;;
57297;SDS011;43147;50.972;18.210;2023-01-28T08:33:38;26.10;;;12.60;;
57297;SDS011;43147;50.972;18.210;2023-01-28T08:36:04;36.20;;;15.10;;
57297;SDS011;43147;50.972;18.210;2023-01-28T08:38:30;35.30;;;14.50;;
57297;SDS011;43147;50.972;18.210;2023-01-28T08:40:56;27.30;;;11.70;;
57297;SDS011;43147;50.972;18.210;2023-01-28T08:43:23;40.40;;;17.00;;
57297;SDS011;43147;50.972;18.210;2023-01-28T08:45:49;23.50;;;11.30;;
57297;SDS011;43147;50.972;18.210;2023-01-28T08:48:15;27.10;;;12.70;;
57297;SDS011;43147;50.972;18.210;2023-01-28T08:50:42;40.80;;;18.10;;
57297;SDS011;43147;50.972;18.210;2023-01-28T08:53:09;38.30;;;15.90;;
57297;SDS011;43147;50.972;18.210;2023-01-28T08:55:37;40.50;;;16.70;;
57297;SDS011;43147;50.972;18.210;2023-01-28T08:58:03;27.80;;;13.20;;
57297;SDS011;43147;50.972;18.210;2023-01-28T09:00:30;38.60;;;14.20;;
57297;SDS011;43147;50.972;18.210;2023-01-28T09:02:56;40.40;;;17.10;;
57297;SDS011;43147;50.972;18.210;2023-01-28T09:05:22;38.40;;;17.70;;
57297;SDS011;43147;50.972;18.210;2023-01-28T09:07:47;34.00;;;14.50;;
57297;SDS011;43147;50.972;18.210;2023-01-28T09:10:14;25.00;;;11.40;;
57297;SDS011;43147;50.972;18.210;2023-01-28T09:12:40;38.70;;;16.40;;
57297;SDS011;43147;50.972;18.210;2023-01-28T09:15:07;40.20;;;15.50;;
57297;SDS011;43147;50.972;18.210;2023-01-28T09:17:35;38.80;;;17.10;;
57297;SDS011;43147;50.972;18.210;2023-01-28T09:20:01;24.30;;;11.20;;
57297;SDS011;43147;50.972;18.210;2023-01-28T09:22:28;30.10;;;13.50;;
57297;SDS011;43147;50.972;18.210;2023-01-28T09:24:54;43.80;;;19.10;;
57297;SDS011;43147;50.972;18.210;2023-01-28T09:27:20;30.20;;;12.90;;
57297;SDS011;43147;50.972;18.210;2023-01-28T09:29:45;39.00;;;15.50;;
57297;SDS011;43147;50.972;18.210;2023-01-28T09:32:11;33.50;;;14.40;;
57297;SDS011;43147;50.972;18.210;2023-01-28T09:34:37;26.10;;;13.70;;
57297;SDS011;43147;50.972;18.210;2023-01-28T09:37:02;32.50;;;14.50;;
57297;SDS011;43147;50.972;18.210;2023-01-28T09:39:28;26.90;;;9.60;;
57297;SDS011;43147;50.972;18.210;2023-01-28T09:44:26;41.10;;;17.90;;
57297;SDS011;43147;50.972;18.210;2023-01-28T09:47:39;32.50;;;12.70;;
57297;SDS011;43147;50.972;18.210;2023-01-28T09:50:14;26.50;;;12.90;;
57297;SDS011;43147;50.972;18.210;2023-01-28T09:52:42;24.50;;;12.20;;
57297;SDS011;43147;50.972;18.210;2023-01-28T09:55:45;21.70;;;12.10;;
57297;SDS011;43147;50.972;18.210;2023-01-28T09:58:05;38.10;;;13.50;;
57297;SDS011;43147;50.972;18.210;2023-01-28T10:00:41;39.30;;;17.30;;
57297;SDS011;43147;50.972;18.210;2023-01-28T10:06:25;29.40;;;13.60;;
57297;SDS011;43147;50.972;18.210;2023-01-28T10:11:55;42.60;;;18.20;;
57297;SDS011;43147;50.972;18.210;2023-01-28T10:14:36;35.90;;;14.70;;
57297;SDS011;43147;50.972;18.210;2023-01-28T10:18:07;32.40;;;15.90;;
57297;SDS011;43147;50.972;18.210;2023-01-28T10:25:16;51.70;;;20.00;;
57297;SDS011;43147;50.972;18.210;2023-01-28T10:27:44;40.40;;;16.20;;
57297;SDS011;43147;50.972;18.210;2023-01-28T10:30:18;41.40;;;16.80;;
57297;SDS011;43147;50.972;18.210;2023-01-28T10:32:50;42.90;;;18.10;;
57297;SDS011;43147;50.972;18.210;2023-01-28T10:35:16;38.00;;;16.30;;
57297;SDS011;43147;50.972;18.210;2023-01-28T10:37:42;31.10;;;13.80;;
57297;SDS011;43147;50.972;18.210;2023-01-28T10:40:11;32.80;;;15.80;;
57297;SDS011;43147;50.972;18.210;2023-01-28T10:42:42;35.80;;;11.60;;
57297;SDS011;43147;50.972;18.210;2023-01-28T10:47:45;40.20;;;14.00;;
57297;SDS011;43147;50.972;18.210;2023-01-28T10:50:22;31.40;;;14.60;;
57297;SDS011;43147;50.972;18.210;2023-01-28T10:52:59;32.60;;;13.70;;
57297;SDS011;43147;50.972;18.210;2023-01-28T10:55:26;30.60;;;14.00;;
57297;SDS011;43147;50.972;18.210;2023-01-28T10:57:59;39.30;;;16.80;;
57297;SDS011;43147;50.972;18.210;2023-01-28T11:00:29;35.60;;;16.40;;
57297;SDS011;43147;50.972;18.210;2023-01-28T11:02:58;32.50;;;15.20;;
57297;SDS011;43147;50.972;18.210;2023-01-28T11:05:25;43.40;;;17.60;;
57297;SDS011;43147;50.972;18.210;2023-01-28T11:08:08;37.80;;;18.90;;
57297;SDS011;43147;50.972;18.210;2023-01-28T11:10:38;34.00;;;15.10;;
57297;SDS011;43147;50.972;18.210;2023-01-28T11:13:05;27.30;;;14.40;;
57297;SDS011;43147;50.972;18.210;2023-01-28T11:18:19;29.80;;;13.90;;
57297;SDS011;43147;50.972;18.210;2023-01-28T11:20:50;37.70;;;16.20;;
57297;SDS011;43147;50.972;18.210;2023-01-28T11:23:23;31.40;;;13.10;;
57297;SDS011;43147;50.972;18.210;2023-01-28T11:31:22;42.80;;;16.90;;
57297;SDS011;43147;50.972;18.210;2023-01-28T11:33:51;41.40;;;17.20;;
57297;SDS011;43147;50.972;18.210;2023-01-28T11:36:22;38.50;;;16.40;;
57297;SDS011;43147;50.972;18.210;2023-01-28T11:38:50;49.70;;;18.50;;
57297;SDS011;43147;50.972;18.210;2023-01-28T11:41:16;44.30;;;21.70;;
57297;SDS011;43147;50.972;18.210;2023-01-28T11:43:42;42.50;;;21.00;;
57297;SDS011;43147;50.972;18.210;2023-01-28T11:54:55;53.20;;;23.80;;
57297;SDS011;43147;50.972;18.210;2023-01-28T11:57:25;58.20;;;23.90;;
57297;SDS011;43147;50.972;18.210;2023-01-28T12:08:42;66.90;;;28.70;;
57297;SDS011;43147;50.972;18.210;2023-01-28T12:19:45;76.30;;;29.60;;
57297;SDS011;43147;50.972;18.210;2023-01-28T12:28:07;63.20;;;22.80;;
57297;SDS011;43147;50.972;18.210;2023-01-28T12:44:52;85.20;;;35.00;;
57297;SDS011;43147;50.972;18.210;2023-01-28T12:47:22;78.70;;;28.00;;
57297;SDS011;43147;50.972;18.210;2023-01-28T12:49:55;68.30;;;30.70;;
57297;SDS011;43147;50.972;18.210;2023-01-28T12:52:34;79.30;;;28.70;;
57297;SDS011;43147;50.972;18.210;2023-01-28T12:58:20;76.80;;;28.80;;
57297;SDS011;43147;50.972;18.210;2023-01-28T13:00:50;62.30;;;27.40;;
57297;SDS011;43147;50.972;18.210;2023-01-28T13:03:37;79.00;;;31.60;;
57297;SDS011;43147;50.972;18.210;2023-01-28T13:06:14;60.10;;;27.90;;
57297;SDS011;43147;50.972;18.210;2023-01-28T13:08:48;52.60;;;22.30;;
57297;SDS011;43147;50.972;18.210;2023-01-28T13:11:14;74.60;;;29.90;;
57297;SDS011;43147;50.972;18.210;2023-01-28T13:13:41;83.40;;;31.90;;
57297;SDS011;43147;50.972;18.210;2023-01-28T13:16:09;71.40;;;31.40;;
57297;SDS011;43147;50.972;18.210;2023-01-28T13:21:05;80.80;;;32.70;;
57297;SDS011;43147;50.972;18.210;2023-01-28T13:26:27;78.30;;;29.10;;
57297;SDS011;43147;50.972;18.210;2023-01-28T13:29:06;85.90;;;33.60;;
57297;SDS011;43147;50.972;18.210;2023-01-28T13:31:49;83.00;;;33.40;;
57297;SDS011;43147;50.972;18.210;2023-01-28T13:34:38;70.10;;;30.40;;
57297;SDS011;43147;50.972;18.210;2023-01-28T13:39:45;64.00;;;28.30;;
57297;SDS011;43147;50.972;18.210;2023-01-28T13:42:33;65.80;;;25.90;;
57297;SDS011;43147;50.972;18.210;2023-01-28T13:47:42;85.40;;;35.90;;
57297;SDS011;43147;50.972;18.210;2023-01-28T13:50:14;79.10;;;35.10;;
57297;SDS011;43147;50.972;18.210;2023-01-28T14:16:35;88.50;;;34.50;;
57297;SDS011;43147;50.972;18.210;2023-01-28T14:19:05;101.60;;;40.20;;
57297;SDS011;43147;50.972;18.210;2023-01-28T14:21:36;85.30;;;35.60;;
57297;SDS011;43147;50.972;18.210;2023-01-28T14:24:01;86.40;;;35.70;;
57297;SDS011;43147;50.972;18.210;2023-01-28T14:26:30;92.50;;;32.50;;
57297;SDS011;43147;50.972;18.210;2023-01-28T14:32:02;87.40;;;32.90;;
57297;SDS011;43147;50.972;18.210;2023-01-28T14:34:33;58.60;;;21.90;;
57297;SDS011;43147;50.972;18.210;2023-01-28T14:37:00;75.50;;;31.60;;
57297;SDS011;43147;50.972;18.210;2023-01-28T14:39:29;74.60;;;30.60;;
57297;SDS011;43147;50.972;18.210;2023-01-28T14:41:57;62.10;;;26.10;;
57297;SDS011;43147;50.972;18.210;2023-01-28T14:44:31;66.80;;;25.90;;
57297;SDS011;43147;50.972;18.210;2023-01-28T14:55:03;79.70;;;32.20;;
57297;SDS011;43147;50.972;18.210;2023-01-28T15:02:47;83.70;;;29.60;;
57297;SDS011;43147;50.972;18.210;2023-01-28T15:05:14;83.60;;;30.50;;
57297;SDS011;43147;50.972;18.210;2023-01-28T15:07:42;76.60;;;28.10;;
57297;SDS011;43147;50.972;18.210;2023-01-28T15:10:53;79.80;;;31.20;;
57297;SDS011;43147;50.972;18.210;2023-01-28T15:13:09;83.50;;;33.00;;
57297;SDS011;43147;50.972;18.210;2023-01-28T15:15:40;67.60;;;26.70;;
57297;SDS011;43147;50.972;18.210;2023-01-28T15:18:12;91.00;;;33.00;;
57297;SDS011;43147;50.972;18.210;2023-01-28T15:20:46;81.50;;;31.70;;
57297;SDS011;43147;50.972;18.210;2023-01-28T15:23:14;76.00;;;30.80;;
57297;SDS011;43147;50.972;18.210;2023-01-28T15:25:41;81.40;;;29.00;;
57297;SDS011;43147;50.972;18.210;2023-01-28T15:28:19;67.80;;;28.60;;
57297;SDS011;43147;50.972;18.210;2023-01-28T15:30:50;72.50;;;29.30;;
57297;SDS011;43147;50.972;18.210;2023-01-28T15:33:15;78.60;;;29.10;;
57297;SDS011;43147;50.972;18.210;2023-01-28T15:35:45;63.90;;;27.20;;
57297;SDS011;43147;50.972;18.210;2023-01-28T15:38:11;77.80;;;25.90;;
57297;SDS011;43147;50.972;18.210;2023-01-28T15:40:41;83.30;;;31.10;;
57297;SDS011;43147;50.972;18.210;2023-01-28T15:43:14;86.90;;;34.10;;
57297;SDS011;43147;50.972;18.210;2023-01-28T15:45:46;79.10;;;28.70;;
57297;SDS011;43147;50.972;18.210;2023-01-28T15:48:13;76.00;;;29.60;;
57297;SDS011;43147;50.972;18.210;2023-01-28T15:50:39;95.10;;;35.40;;
57297;SDS011;43147;50.972;18.210;2023-01-28T15:53:09;76.20;;;31.60;;
57297;SDS011;43147;50.972;18.210;2023-01-28T15:55:36;90.70;;;34.80;;
57297;SDS011;43147;50.972;18.210;2023-01-28T15:58:17;93.90;;;36.00;;
57297;SDS011;43147;50.972;18.210;2023-01-28T16:00:49;84.00;;;32.30;;
57297;SDS011;43147;50.972;18.210;2023-01-28T16:03:17;73.30;;;28.00;;
57297;SDS011;43147;50.972;18.210;2023-01-28T16:05:56;100.10;;;37.20;;
57297;SDS011;43147;50.972;18.210;2023-01-28T16:08:27;94.30;;;34.80;;
57297;SDS011;43147;50.972;18.210;2023-01-28T16:10:58;104.10;;;39.70;;
57297;SDS011;43147;50.972;18.210;2023-01-28T16:13:26;98.40;;;38.80;;
57297;SDS011;43147;50.972;18.210;2023-01-28T16:15:53;97.60;;;35.90;;
57297;SDS011;43147;50.972;18.210;2023-01-28T16:23:31;104.90;;;36.90;;
57297;SDS011;43147;50.972;18.210;2023-01-28T16:26:01;112.40;;;37.20;;
57297;SDS011;43147;50.972;18.210;2023-01-28T16:28:31;107.40;;;39.10;;
57297;SDS011;43147;50.972;18.210;2023-01-28T16:30:57;76.30;;;34.80;;
57297;SDS011;43147;50.972;18.210;2023-01-28T16:33:24;100.40;;;40.30;;
57297;SDS011;43147;50.972;18.210;2023-01-28T16:35:50;96.40;;;38.10;;
57297;SDS011;43147;50.972;18.210;2023-01-28T16:38:16;92.80;;;35.10;;
57297;SDS011;43147;50.972;18.210;2023-01-28T16:40:42;112.70;;;40.90;;
57297;SDS011;43147;50.972;18.210;2023-01-28T16:43:09;94.40;;;40.30;;
57297;SDS011;43147;50.972;18.210;2023-01-28T16:45:38;97.10;;;39.10;;
57297;SDS011;43147;50.972;18.210;2023-01-28T16:48:06;100.80;;;35.60;;
57297;SDS011;43147;50.972;18.210;2023-01-28T16:50:32;122.80;;;41.80;;
57297;SDS011;43147;50.972;18.210;2023-01-28T16:52:57;109.80;;;40.30;;
57297;SDS011;43147;50.972;18.210;2023-01-28T16:55:24;101.70;;;41.20;;
57297;SDS011;43147;50.972;18.210;2023-01-28T16:57:50;109.60;;;41.50;;